Time;durP1;ratioP1;P1;durP2;ratioP2;P2;SDS_P1;SDS_P2;PMS_P1;PMS_P2;Temp;Humidity;BMP_temperature;BMP_pressure;BME280_temperature;BME280_humidity;BME280_pressure;Samples;Min_cycle;Max_cycle;Signal;HPM_P1;HPM_P2
2021/09/25 00:01:03;;;;;;;14.73;11.45;;;14.10;99.90;;;;;;5117581;27;20483;-63
2021/09/25 00:03:29;;;;;;;;;;;14.10;99.90;;;;;;5139003;27;20039;-65
2021/09/25 00:05:54;;;;;;;16.08;11.77;;;14.10;99.90;;;;;;5122522;28;20347;-64
2021/09/25 00:08:20;;;;;;;;;;;14.00;99.90;;;;;;5122106;27;20418;-63
2021/09/25 00:10:46;;;;;;;16.23;11.50;;;14.00;99.90;;;;;;5134719;27;20592;-64
2021/09/25 00:13:11;;;;;;;;;;;14.00;99.90;;;;;;5133116;27;20118;-65
2021/09/25 00:15:37;;;;;;;19.88;12.95;;;14.00;99.90;;;;;;5122565;27;20002;-65
2021/09/25 00:18:05;;;;;;;20.02;12.50;;;14.00;99.90;;;;;;5113692;27;20652;-65
2021/09/25 00:20:35;;;;;;;20.67;13.82;;;14.00;99.90;;;;;;5112861;27;20036;-65
2021/09/25 00:23:01;;;;;;;18.13;11.43;;;14.00;99.90;;;;;;5103866;27;20046;-64
2021/09/25 00:25:26;;;;;;;;;;;14.00;99.90;;;;;;5120552;27;20040;-64
2021/09/25 00:27:52;;;;;;;15.73;10.85;;;14.00;99.90;;;;;;5099759;27;19943;-65
2021/09/25 00:30:18;;;;;;;;;;;14.00;99.90;;;;;;5104318;27;20036;-65
2021/09/25 00:32:44;;;;;;;18.85;13.00;;;14.10;99.90;;;;;;5088854;28;19923;-65
2021/09/25 00:35:10;;;;;;;;;;;14.10;99.90;;;;;;5097128;28;20483;-66
2021/09/25 00:37:36;;;;;;;18.70;13.10;;;14.10;99.90;;;;;;5094200;28;20062;-64
2021/09/25 00:40:04;;;;;;;21.05;15.48;;;14.10;99.90;;;;;;5100085;28;20027;-65
2021/09/25 00:42:29;;;;;;;16.63;12.70;;;14.10;99.90;;;;;;5108917;28;20487;-64
2021/09/25 00:44:55;;;;;;;;;;;14.20;99.90;;;;;;5110040;28;20118;-65
2021/09/25 00:47:20;;;;;;;19.17;14.43;;;14.10;99.90;;;;;;5107931;28;20154;-65
2021/09/25 00:49:46;;;;;;;;;;;14.10;99.90;;;;;;5109665;28;20040;-64
2021/09/25 00:52:11;;;;;;;22.88;17.83;;;14.10;99.90;;;;;;5103238;28;19926;-64
2021/09/25 00:54:37;;;;;;;;;;;14.10;99.90;;;;;;5096945;28;20044;-65
2021/09/25 00:57:04;;;;;;;26.42;16.95;;;14.10;99.90;;;;;;5096239;28;19942;-65
2021/09/25 00:59:30;;;;;;;41.58;28.75;;;14.10;99.90;;;;;;5098829;28;20069;-64
2021/09/25 01:01:56;;;;;;;27.50;19.25;;;14.10;99.90;;;;;;5086663;28;20531;-64
2021/09/25 01:04:21;;;;;;;;;;;14.10;99.90;;;;;;5097076;28;20074;-66
2021/09/25 01:06:47;;;;;;;19.92;13.45;;;14.10;99.90;;;;;;5097979;28;19946;-66
2021/09/25 01:09:13;;;;;;;;;;;14.20;99.90;;;;;;5096578;28;20058;-65
2021/09/25 01:11:39;;;;;;;18.95;13.82;;;14.20;99.90;;;;;;5107254;28;19964;-64
2021/09/25 01:14:04;;;;;;;;;;;14.20;99.90;;;;;;5109891;28;20043;-65
2021/09/25 01:16:30;;;;;;;20.92;15.07;;;14.20;99.90;;;;;;5107688;28;19965;-66
2021/09/25 01:18:56;;;;;;;21.00;14.40;;;14.20;99.90;;;;;;5108885;28;20562;-64
2021/09/25 01:21:22;;;;;;;;;;;14.20;99.90;;;;;;5108382;28;20035;-64
2021/09/25 01:23:48;;;;;;;27.25;16.35;;;14.20;99.90;;;;;;5102726;28;19928;-64
2021/09/25 01:26:13;;;;;;;;;;;14.20;99.90;;;;;;5104342;28;20055;-65
2021/09/25 01:28:41;;;;;;;21.88;14.95;;;14.20;99.90;;;;;;5107912;28;20288;-65
2021/09/25 01:31:11;;;;;;;19.15;12.80;;;14.20;99.90;;;;;;5105357;28;20055;-65
2021/09/25 01:33:42;;;;;;;25.48;17.00;;;14.20;99.90;;;;;;5099931;28;20456;-64
2021/09/25 01:36:09;;;;;;;25.15;15.25;;;14.20;99.90;;;;;;5107102;28;20160;-65
2021/09/25 01:38:36;;;;;;;18.33;12.43;;;14.20;99.90;;;;;;5107019;28;20040;-64
2021/09/25 01:41:02;;;;;;;17.42;12.75;;;14.20;99.90;;;;;;5107139;27;20032;-65
2021/09/25 01:43:29;;;;;;;;;;;14.10;99.90;;;;;;5108427;28;20076;-64
2021/09/25 01:45:55;;;;;;;16.08;11.95;;;14.10;99.90;;;;;;5105054;27;20275;-66
2021/09/25 01:48:20;;;;;;;;;;;14.10;99.90;;;;;;5098228;28;20530;-64
2021/09/25 01:50:46;;;;;;;17.55;12.23;;;14.10;99.90;;;;;;5087357;28;20030;-65
2021/09/25 01:53:12;;;;;;;;;;;14.00;99.90;;;;;;5086377;28;20040;-64
2021/09/25 01:55:38;;;;;;;16.25;11.18;;;14.00;99.90;;;;;;5102676;28;19915;-66
2021/09/25 01:58:03;;;;;;;;;;;14.00;99.90;;;;;;5096111;28;20078;-65
2021/09/25 02:00:31;;;;;;;16.05;10.63;;;14.00;99.90;;;;;;5095487;28;19916;-65
2021/09/25 02:02:57;;;;;;;15.52;11.00;;;14.10;99.90;;;;;;5087335;28;20043;-66
2021/09/25 02:05:22;;;;;;;;;;;14.00;99.90;;;;;;5087770;28;20040;-66
2021/09/25 02:07:49;;;;;;;16.73;9.48;;;14.10;99.90;;;;;;5096319;28;19930;-64
2021/09/25 02:10:15;;;;;;;16.90;10.68;;;14.00;99.90;;;;;;5101555;28;20035;-64
2021/09/25 02:12:42;;;;;;;13.75;9.85;;;14.00;99.90;;;;;;5090293;28;20454;-64
2021/09/25 02:15:08;;;;;;;15.40;9.10;;;14.00;99.90;;;;;;5099587;28;20088;-64
2021/09/25 02:17:34;;;;;;;17.50;8.85;;;14.00;99.90;;;;;;5106054;28;20044;-65
2021/09/25 02:20:00;;;;;;;;;;;14.00;99.90;;;;;;5108382;28;20058;-64
2021/09/25 02:22:26;;;;;;;14.48;8.90;;;14.00;99.90;;;;;;5105731;28;20567;-66
2021/09/25 02:24:52;;;;;;;;;;;14.00;99.90;;;;;;5108085;28;20039;-65
2021/09/25 02:27:17;;;;;;;13.25;8.65;;;14.00;99.90;;;;;;5093761;28;19926;-64
2021/09/25 02:29:43;;;;;;;;;;;14.00;99.90;;;;;;5087414;28;20122;-64
2021/09/25 02:32:09;;;;;;;14.48;8.32;;;14.10;99.90;;;;;;5090955;28;20037;-65
2021/09/25 02:34:35;;;;;;;;;;;14.10;99.90;;;;;;5098794;28;20553;-64
2021/09/25 02:37:01;;;;;;;15.30;9.90;;;14.00;99.90;;;;;;5089833;28;19916;-65
2021/09/25 02:39:27;;;;;;;;;;;14.00;99.90;;;;;;5086459;28;20081;-64
2021/09/25 02:41:53;;;;;;;15.40;9.80;;;14.00;99.90;;;;;;5095881;28;19916;-65
2021/09/25 02:44:18;;;;;;;;;;;14.00;99.90;;;;;;5097029;28;20120;-65
2021/09/25 02:46:44;;;;;;;16.33;10.77;;;14.00;99.90;;;;;;5096823;28;19920;-64
2021/09/25 02:49:10;;;;;;;21.70;13.95;;;14.00;99.90;;;;;;5101825;28;20035;-65
2021/09/25 02:51:35;;;;;;;;;;;14.00;99.90;;;;;;5093548;28;20052;-64
2021/09/25 02:54:01;;;;;;;17.23;10.35;;;14.00;99.90;;;;;;5097904;28;20336;-64
2021/09/25 02:56:26;;;;;;;;;;;14.00;99.90;;;;;;5106817;28;20042;-65
2021/09/25 02:58:52;;;;;;;12.82;8.07;;;14.00;99.90;;;;;;5097105;28;19919;-66
2021/09/25 03:01:17;;;;;;;;;;;14.00;99.90;;;;;;5089650;28;20164;-66
2021/09/25 03:03:43;;;;;;;14.73;9.27;;;13.90;99.90;;;;;;5094915;28;20340;-64
2021/09/25 03:06:08;;;;;;;;;;;13.90;99.90;;;;;;5085447;28;20040;-64
2021/09/25 03:08:34;;;;;;;16.55;9.73;;;13.90;99.90;;;;;;5094017;28;19991;-65
2021/09/25 03:10:59;;;;;;;;;;;13.90;99.90;;;;;;5097985;28;20650;-65
2021/09/25 03:13:25;;;;;;;15.95;10.13;;;13.90;99.90;;;;;;5092924;28;20340;-64
2021/09/25 03:15:50;;;;;;;;;;;13.90;99.90;;;;;;5098340;28;20784;-65
2021/09/25 03:18:16;;;;;;;19.95;10.40;;;13.80;99.90;;;;;;5093670;28;20037;-65
2021/09/25 03:20:42;;;;;;;;;;;13.80;99.90;;;;;;5091863;28;20079;-64
2021/09/25 03:23:07;;;;;;;15.50;10.25;;;13.80;99.90;;;;;;5090242;28;19920;-64
2021/09/25 03:25:33;;;;;;;;;;;13.70;99.90;;;;;;5088709;28;20033;-64
2021/09/25 03:27:58;;;;;;;15.38;10.02;;;13.80;99.90;;;;;;5093426;28;19916;-64
2021/09/25 03:30:24;;;;;;;;;;;13.70;99.90;;;;;;5095541;28;20039;-64
2021/09/25 03:32:50;;;;;;;17.45;10.90;;;13.70;99.90;;;;;;5085679;28;20394;-63
2021/09/25 03:35:15;;;;;;;;;;;13.70;99.90;;;;;;5093931;28;20032;-63
2021/09/25 03:37:41;;;;;;;17.33;10.70;;;13.60;99.90;;;;;;5097374;28;20503;-64
2021/09/25 03:40:07;;;;;;;;;;;13.60;99.90;;;;;;5100567;28;20028;-63
2021/09/25 03:42:33;;;;;;;20.40;10.90;;;13.60;99.90;;;;;;5095325;28;19916;-64
2021/09/25 03:44:58;;;;;;;;;;;13.60;99.90;;;;;;5085582;28;20031;-63
2021/09/25 03:47:24;;;;;;;15.88;10.52;;;13.50;99.90;;;;;;5084107;28;19924;-64
2021/09/25 03:49:49;;;;;;;;;;;13.50;99.90;;;;;;5085599;28;20536;-64
2021/09/25 03:52:15;;;;;;;21.05;13.10;;;13.50;99.90;;;;;;5088501;28;19999;-64
2021/09/25 03:54:41;;;;;;;;;;;13.40;99.90;;;;;;5099903;28;20042;-65
2021/09/25 03:57:07;;;;;;;17.05;11.07;;;13.40;99.90;;;;;;5095674;28;20398;-63
2021/09/25 03:59:32;;;;;;;21.67;12.70;;;13.40;99.90;;;;;;5094982;28;20036;-63
2021/09/25 04:01:58;;;;;;;;;;;13.40;99.90;;;;;;5093061;28;20032;-64
2021/09/25 04:04:24;;;;;;;20.20;12.90;;;13.40;99.90;;;;;;5097473;28;20423;-63
2021/09/25 04:06:50;;;;;;;19.60;11.98;;;13.30;99.90;;;;;;5090298;28;20047;-64
2021/09/25 04:09:15;;;;;;;;;;;13.30;99.90;;;;;;5097576;28;20430;-64
2021/09/25 04:11:42;;;;;;;20.55;12.82;;;13.30;99.90;;;;;;5108805;28;19970;-64
2021/09/25 04:14:08;;;;;;;22.08;13.95;;;13.30;99.90;;;;;;5109150;28;20042;-64
2021/09/25 04:16:33;;;;;;;;;;;13.30;99.90;;;;;;5107354;28;20043;-64
2021/09/25 04:18:59;;;;;;;21.00;13.85;;;13.30;99.90;;;;;;5106735;28;19919;-63
2021/09/25 04:21:24;;;;;;;;;;;13.30;99.90;;;;;;5099313;28;20048;-63
2021/09/25 04:23:50;;;;;;;21.70;13.27;;;13.30;99.90;;;;;;5096523;28;19916;-64
2021/09/25 04:26:16;;;;;;;;;;;13.20;99.90;;;;;;5088468;28;20058;-65
2021/09/25 04:28:42;;;;;;;21.13;12.35;;;13.20;99.90;;;;;;5097630;28;19915;-64
2021/09/25 04:31:07;;;;;;;;;;;13.20;99.90;;;;;;5091622;27;20086;-57
2021/09/25 04:33:33;;;;;;;21.65;12.73;;;13.20;99.90;;;;;;5093150;28;19951;-63
2021/09/25 04:35:58;;;;;;;;;;;13.20;99.90;;;;;;5102898;28;20070;-63
2021/09/25 04:38:24;;;;;;;16.20;10.68;;;13.10;99.90;;;;;;5102337;28;19954;-63
2021/09/25 04:40:49;;;;;;;;;;;13.20;99.90;;;;;;5087625;28;20051;-63
2021/09/25 04:43:15;;;;;;;22.52;11.65;;;13.10;99.90;;;;;;5096604;28;19951;-63
2021/09/25 04:45:40;;;;;;;;;;;13.10;99.90;;;;;;5107660;28;20231;-63
2021/09/25 04:48:06;;;;;;;19.30;10.93;;;13.10;99.90;;;;;;5109115;28;19916;-62
2021/09/25 04:50:32;;;;;;;;;;;13.00;99.90;;;;;;5109535;28;20133;-64
2021/09/25 04:53:08;;;;;;;19.27;11.30;;;13.00;99.90;;;;;;5108582;28;19915;-64
2021/09/25 04:55:35;;;;;;;20.88;12.10;;;13.00;99.90;;;;;;5106571;28;20123;-63
2021/09/25 04:58:01;;;;;;;19.92;12.00;;;13.00;99.90;;;;;;5095576;27;20611;-64
2021/09/25 05:00:26;;;;;;;;;;;13.00;99.90;;;;;;5089349;28;20059;-63
2021/09/25 05:02:52;;;;;;;23.02;12.43;;;13.00;99.90;;;;;;5094514;28;20292;-63
2021/09/25 05:05:17;;;;;;;;;;;13.00;99.90;;;;;;5097178;28;20123;-62
2021/09/25 05:07:43;;;;;;;16.95;11.25;;;13.00;99.90;;;;;;5096470;28;19920;-62
2021/09/25 05:10:09;;;;;;;;;;;13.00;99.90;;;;;;5108229;28;20043;-61
2021/09/25 05:12:34;;;;;;;13.38;8.68;;;13.00;99.90;;;;;;5107642;28;19923;-62
2021/09/25 05:15:00;;;;;;;;;;;13.00;99.90;;;;;;5109120;28;20432;-62
2021/09/25 05:17:25;;;;;;;19.40;11.02;;;13.10;99.90;;;;;;5107450;28;19916;-62
2021/09/25 05:19:51;;;;;;;;;;;13.10;99.90;;;;;;5108553;28;20079;-63
2021/09/25 05:22:18;;;;;;;18.45;10.10;;;13.10;99.90;;;;;;5104507;28;19927;-63
2021/09/25 05:24:45;;;;;;;15.35;9.25;;;13.10;99.90;;;;;;5089302;28;20088;-62
2021/09/25 05:27:11;;;;;;;17.33;10.25;;;13.10;99.90;;;;;;5086708;28;20052;-61
2021/09/25 05:29:37;;;;;;;17.58;10.90;;;13.00;99.90;;;;;;5088211;28;20051;-64
2021/09/25 05:32:03;;;;;;;;;;;13.00;99.90;;;;;;5097547;28;20036;-60
2021/09/25 05:34:29;;;;;;;15.93;8.68;;;13.00;99.90;;;;;;5097398;28;19916;-63
2021/09/25 05:36:56;;;;;;;;;;;13.00;99.90;;;;;;5097036;28;20044;-63
2021/09/25 05:39:21;;;;;;;;;;;13.10;99.90;;;;;;5105774;28;19922;-63
2021/09/25 05:41:47;;;;;;;14.20;7.82;;;13.00;99.90;;;;;;5107818;28;19919;-64
2021/09/25 05:44:12;;;;;;;;;;;13.10;99.90;;;;;;5108309;28;20047;-62
2021/09/25 05:46:38;;;;;;;13.68;7.70;;;13.10;99.90;;;;;;5107226;27;20008;-64
2021/09/25 05:49:03;;;;;;;;;;;13.20;99.90;;;;;;5108935;28;20042;-63
2021/09/25 05:51:29;;;;;;;12.23;7.15;;;13.20;99.90;;;;;;5108192;28;19916;-63
2021/09/25 05:53:54;;;;;;;;;;;13.20;99.90;;;;;;5108611;28;20119;-64
2021/09/25 05:56:20;;;;;;;12.02;6.00;;;13.20;99.90;;;;;;5107316;28;19925;-64
2021/09/25 05:58:45;;;;;;;;;;;13.20;99.90;;;;;;5096072;28;20048;-63
2021/09/25 06:01:11;;;;;;;13.00;6.40;;;13.20;99.90;;;;;;5090730;28;20298;-62
2021/09/25 06:03:37;;;;;;;;;;;13.30;99.90;;;;;;5100142;28;20470;-63
2021/09/25 06:06:02;;;;;;;16.52;7.13;;;13.30;99.90;;;;;;5107097;28;19923;-63
2021/09/25 06:08:27;;;;;;;;;;;13.40;99.90;;;;;;5092522;28;20040;-63
2021/09/25 06:10:53;;;;;;;12.68;7.28;;;13.40;99.90;;;;;;5091880;28;19972;-63
2021/09/25 06:13:18;;;;;;;;;;;13.40;99.90;;;;;;5099357;28;20096;-62
2021/09/25 06:15:44;;;;;;;19.92;11.90;;;13.40;99.90;;;;;;5106440;28;20086;-63
2021/09/25 06:18:10;;;;;;;;;;;13.50;99.90;;;;;;5107981;28;20040;-63
2021/09/25 06:20:36;;;;;;;31.85;16.75;;;13.50;99.90;;;;;;5107198;28;20613;-63
2021/09/25 06:23:02;;;;;;;;;;;13.50;99.90;;;;;;5108075;28;20035;-63
2021/09/25 06:25:27;;;;;;;22.08;14.90;;;13.60;99.90;;;;;;5106944;28;20375;-63
2021/09/25 06:27:53;;;;;;;;;;;13.60;99.90;;;;;;5090441;28;20119;-64
2021/09/25 06:30:19;;;;;;;12.38;6.50;;;13.60;99.90;;;;;;5086707;28;19958;-62
2021/09/25 06:32:45;;;;;;;59.20;36.47;;;13.70;99.90;;;;;;5095252;28;20032;-63
2021/09/25 06:35:11;;;;;;;39.83;23.67;;;13.70;99.90;;;;;;5089919;28;20409;-63
2021/09/25 06:37:37;;;;;;;;;;;13.70;99.90;;;;;;5086204;28;20052;-64
2021/09/25 06:40:05;;;;;;;16.40;7.03;;;13.80;99.90;;;;;;5086996;28;20019;-63
2021/09/25 06:42:30;;;;;;;7.28;4.93;;;13.80;99.90;;;;;;5090495;28;20075;-64
2021/09/25 06:44:56;;;;;;;;;;;13.80;99.90;;;;;;5093545;28;20294;-64
2021/09/25 06:47:21;;;;;;;7.18;3.58;;;13.90;99.90;;;;;;5085453;28;19934;-64
2021/09/25 06:49:47;;;;;;;;;;;13.90;99.90;;;;;;5086504;28;20036;-64
2021/09/25 06:52:13;;;;;;;5.72;3.28;;;14.00;99.90;;;;;;5086037;28;19935;-63
2021/09/25 06:54:39;;;;;;;;;;;14.00;99.90;;;;;;5085662;28;20085;-63
2021/09/25 06:57:06;;;;;;;4.93;2.90;;;14.10;99.90;;;;;;5086418;28;19971;-63
2021/09/25 06:59:32;;;;;;;5.90;3.20;;;14.10;99.90;;;;;;5108435;27;20065;-64
2021/09/25 07:01:57;;;;;;;;;;;14.20;99.90;;;;;;5120390;27;20414;-64
2021/09/25 07:04:23;;;;;;;7.38;3.30;;;14.20;99.90;;;;;;5127018;27;19916;-64
2021/09/25 07:06:48;;;;;;;;;;;14.20;99.90;;;;;;5124903;28;20699;-64
2021/09/25 07:09:14;;;;;;;7.32;3.70;;;14.30;99.90;;;;;;5107258;28;19927;-64
2021/09/25 07:11:39;;;;;;;;;;;14.30;99.90;;;;;;5096477;28;20036;-64
2021/09/25 07:14:05;;;;;;;8.60;3.58;;;14.40;99.90;;;;;;5099950;28;19916;-63
2021/09/25 07:16:31;;;;;;;11.30;3.25;;;14.30;99.90;;;;;;5105261;28;20460;-63
2021/09/25 07:18:56;;;;;;;11.30;6.35;;;14.40;99.90;;;;;;5106956;28;20084;-63
2021/09/25 07:21:22;;;;;;;;;;;14.50;99.90;;;;;;5107290;28;20043;-65
2021/09/25 07:23:48;;;;;;;8.13;5.20;;;14.60;99.90;;;;;;5107105;28;19928;-64
2021/09/25 07:26:14;;;;;;;;;;;14.60;99.90;;;;;;5106687;28;20108;-64
2021/09/25 07:28:39;;;;;;;13.45;7.50;;;14.70;99.90;;;;;;5109748;28;19997;-63
2021/09/25 07:31:09;;;;;;;;;;;14.80;99.90;;;;;;5109736;28;20038;-64
2021/09/25 07:33:41;;;;;;;8.60;4.15;;;14.90;99.90;;;;;;5102768;28;19915;-64
2021/09/25 07:36:07;;;;;;;5.18;2.95;;;14.90;99.90;;;;;;5110922;28;20417;-64
2021/09/25 07:38:34;;;;;;;5.60;3.95;;;15.00;99.90;;;;;;5108800;28;20047;-64
2021/09/25 07:41:03;;;;;;;6.97;3.42;;;15.00;99.90;;;;;;5099913;28;20040;-64
2021/09/25 07:43:31;;;;;;;16.23;5.10;;;15.10;99.90;;;;;;5090361;28;20040;-64
2021/09/25 07:46:02;;;;;;;6.38;3.38;;;15.20;99.90;;;;;;5090097;28;20082;-64
2021/09/25 07:48:27;;;;;;;5.50;2.67;;;15.20;99.90;;;;;;5091406;28;20040;-64
2021/09/25 07:50:58;;;;;;;;;;;15.20;99.90;;;;;;5091594;28;20094;-64
2021/09/25 07:53:26;;;;;;;2.85;1.98;;;15.30;99.90;;;;;;5092013;28;20015;-64
2021/09/25 07:55:55;;;;;;;5.18;2.10;;;15.30;99.90;;;;;;5090953;28;20131;-64
2021/09/25 07:58:21;;;;;;;3.58;2.42;;;15.40;99.90;;;;;;5094164;28;20036;-64
2021/09/25 08:00:47;;;;;;;;;;;15.40;99.90;;;;;;5090648;28;20093;-64
2021/09/25 08:03:12;;;;;;;5.35;3.47;;;15.40;99.90;;;;;;5099903;28;20304;-64
2021/09/25 08:05:38;;;;;;;;;;;15.40;99.90;;;;;;5090809;28;20093;-64
2021/09/25 08:08:04;;;;;;;3.65;2.40;;;15.40;99.90;;;;;;5103483;28;19958;-64
2021/09/25 08:10:29;;;;;;;;;;;15.40;99.90;;;;;;5103780;28;20063;-64
2021/09/25 08:12:55;;;;;;;10.75;4.05;;;15.40;99.90;;;;;;5102689;28;19920;-64
2021/09/25 08:15:21;;;;;;;;;;;15.40;99.90;;;;;;5111687;28;20039;-64
2021/09/25 08:17:47;;;;;;;3.22;1.95;;;15.50;99.90;;;;;;5114203;28;19922;-63
2021/09/25 08:20:14;;;;;;;4.13;2.20;;;15.60;99.90;;;;;;5099863;28;20077;-64
2021/09/25 08:22:42;;;;;;;3.88;2.00;;;15.60;99.90;;;;;;5091956;28;20040;-64
2021/09/25 08:25:09;;;;;;;2.75;1.90;;;15.80;99.90;;;;;;5089247;28;20044;-64
2021/09/25 08:27:35;;;;;;;3.80;2.15;;;15.80;99.90;;;;;;5090444;28;20032;-63
2021/09/25 08:30:02;;;;;;;2.88;1.80;;;15.90;99.90;;;;;;5093768;28;20062;-63
2021/09/25 08:32:28;;;;;;;5.35;2.38;;;15.90;99.90;;;;;;5106839;28;20040;-64
2021/09/25 08:34:54;;;;;;;11.82;3.42;;;16.00;99.90;;;;;;5090974;28;20048;-64
2021/09/25 08:37:19;;;;;;;;;;;16.00;99.90;;;;;;5090285;28;20036;-65
2021/09/25 08:39:45;;;;;;;4.90;2.67;;;15.90;99.90;;;;;;5089853;28;19922;-63
2021/09/25 08:42:12;;;;;;;;;;;16.00;99.90;;;;;;5093548;28;20480;-62
2021/09/25 08:44:38;;;;;;;5.50;2.35;;;16.00;99.90;;;;;;5099200;28;19924;-63
2021/09/25 08:47:05;;;;;;;1.95;1.75;;;15.90;99.90;;;;;;5088897;28;20036;-63
2021/09/25 08:49:31;;;;;;;3.60;2.15;;;15.90;99.90;;;;;;5090421;28;20403;-63
2021/09/25 08:51:59;;;;;;;3.42;1.73;;;15.90;99.90;;;;;;5089847;28;20097;-63
2021/09/25 08:54:25;;;;;;;3.22;2.03;;;15.90;99.90;;;;;;5090014;28;20043;-64
2021/09/25 08:56:50;;;;;;;;;;;16.00;99.90;;;;;;5090399;28;20579;-64
2021/09/25 08:59:16;;;;;;;2.67;2.05;;;16.00;99.90;;;;;;5089481;28;19920;-63
2021/09/25 09:01:43;;;;;;;;;;;16.00;99.90;;;;;;5098008;28;20508;-64
2021/09/25 09:04:09;;;;;;;2.67;1.60;;;16.00;99.90;;;;;;5104426;28;19978;-63
2021/09/25 09:06:36;;;;;;;4.10;2.10;;;16.10;99.90;;;;;;5109219;28;20050;-63
2021/09/25 09:09:07;;;;;;;5.57;2.40;;;16.10;99.90;;;;;;5090455;28;20036;-64
2021/09/25 09:11:39;;;;;;;3.67;2.03;;;16.20;99.90;;;;;;5089621;28;20040;-64
2021/09/25 09:14:04;;;;;;;3.83;2.25;;;16.20;99.90;;;;;;5090668;28;20139;-63
2021/09/25 09:16:30;;;;;;;;;;;16.30;99.90;;;;;;5088890;28;20047;-64
2021/09/25 09:18:57;;;;;;;2.97;2.03;;;16.30;99.90;;;;;;5089948;28;19920;-64
2021/09/25 09:21:29;;;;;;;4.78;2.38;;;16.30;99.90;;;;;;5089671;28;20055;-63
2021/09/25 09:23:57;;;;;;;4.57;2.42;;;16.30;99.90;;;;;;5088916;28;20177;-63
2021/09/25 09:26:25;;;;;;;2.17;1.75;;;16.40;99.90;;;;;;5088884;28;20853;-64
2021/09/25 09:28:53;;;;;;;3.33;2.00;;;16.40;99.90;;;;;;5089410;28;20093;-64
2021/09/25 09:31:19;;;;;;;3.33;2.10;;;16.40;99.90;;;;;;5096783;28;20081;-63
2021/09/25 09:33:46;;;;;;;6.38;2.70;;;16.30;99.90;;;;;;5101874;28;20395;-64
2021/09/25 09:36:14;;;;;;;9.30;2.17;;;16.30;99.90;;;;;;5109335;28;20047;-64
2021/09/25 09:38:46;;;;;;;3.13;2.30;;;16.40;99.90;;;;;;5110563;28;20028;-64
2021/09/25 09:41:12;;;;;;;3.47;2.38;;;16.30;99.90;;;;;;5108840;28;20043;-64
2021/09/25 09:43:38;;;;;;;;;;;16.40;99.90;;;;;;5110071;28;20478;-63
2021/09/25 09:46:04;;;;;;;2.67;2.13;;;16.30;99.90;;;;;;5109093;27;19931;-63
2021/09/25 09:48:29;;;;;;;;;;;16.40;99.90;;;;;;5096927;28;20101;-64
2021/09/25 09:50:57;;;;;;;3.90;2.05;;;16.40;99.90;;;;;;5088414;28;19928;-64
2021/09/25 09:53:22;;;;;;;3.17;2.13;;;16.50;99.90;;;;;;5089291;28;20076;-64
2021/09/25 09:55:48;;;;;;;;;;;16.70;99.90;;;;;;5089328;28;20070;-63
2021/09/25 09:58:14;;;;;;;3.00;1.95;;;16.70;99.90;;;;;;5094121;28;19916;-64
2021/09/25 10:00:39;;;;;;;;;;;16.80;99.90;;;;;;5105238;28;20454;-63
2021/09/25 10:03:06;;;;;;;2.45;1.88;;;16.90;99.90;;;;;;5097592;28;20043;-63
2021/09/25 10:05:33;;;;;;;6.13;2.28;;;17.00;99.90;;;;;;5088836;28;20620;-64
2021/09/25 10:07:58;;;;;;;3.85;2.53;;;17.00;99.90;;;;;;5098510;28;20040;-64
2021/09/25 10:10:26;;;;;;;;;;;17.10;99.90;;;;;;5108735;28;20048;-65
2021/09/25 10:12:53;;;;;;;2.75;2.03;;;17.20;99.90;;;;;;5108640;28;19927;-63
2021/09/25 10:15:19;;;;;;;8.50;1.90;;;17.20;99.90;;;;;;5108826;28;20043;-63
2021/09/25 10:17:45;;;;;;;2.72;1.83;;;17.30;99.90;;;;;;5108095;28;20043;-64
2021/09/25 10:20:11;;;;;;;;;;;17.30;99.90;;;;;;5098263;28;20453;-63
2021/09/25 10:22:37;;;;;;;3.73;2.30;;;17.30;99.90;;;;;;5088600;28;20337;-64
2021/09/25 10:25:07;;;;;;;3.70;2.42;;;17.40;99.90;;;;;;5087932;28;20032;-63
2021/09/25 10:27:35;;;;;;;2.42;1.98;;;17.40;99.90;;;;;;5090586;28;20044;-64
2021/09/25 10:30:04;;;;;;;2.80;2.05;;;17.50;99.90;;;;;;5088621;28;20479;-64
2021/09/25 10:32:32;;;;;;;3.38;2.10;;;17.50;99.90;;;;;;5102941;28;20130;-65
2021/09/25 10:35:10;;;;;;;6.10;2.05;;;17.50;99.90;;;;;;5088239;28;20044;-64
2021/09/25 10:37:49;;;;;;;3.95;2.65;;;17.50;99.90;;;;;;5087302;28;20079;-64
2021/09/25 10:40:17;;;;;;;4.80;3.03;;;17.50;99.90;;;;;;5087747;28;20488;-64
2021/09/25 10:42:56;;;;;;;3.42;2.63;;;17.50;99.90;;;;;;5094106;28;20047;-64
2021/09/25 10:45:24;;;;;;;4.53;2.67;;;17.50;99.90;;;;;;5091005;28;20043;-64
2021/09/25 10:48:21;;;;;;;3.72;2.65;;;17.50;99.90;;;;;;5087071;28;20039;-64
2021/09/25 10:50:50;;;;;;;5.50;3.30;;;17.60;99.90;;;;;;5087322;28;20040;-64
2021/09/25 10:53:19;;;;;;;5.40;3.60;;;17.60;99.90;;;;;;5088199;28;20051;-63
2021/09/25 10:55:47;;;;;;;5.47;3.40;;;17.70;99.90;;;;;;5086852;28;20056;-64
2021/09/25 10:58:24;;;;;;;7.50;4.07;;;17.80;99.90;;;;;;5087296;28;20124;-64
2021/09/25 11:00:57;;;;;;;7.47;5.22;;;17.90;99.90;;;;;;5091497;28;20046;-63
2021/09/25 11:06:18;;;;;;;6.82;4.68;;;17.90;99.90;;;;;;5107385;28;20047;-63
2021/09/25 11:09:09;;;;;;;9.02;4.85;;;17.90;99.90;;;;;;5090141;28;20115;-64
2021/09/25 11:11:36;;;;;;;8.13;4.40;;;17.90;99.90;;;;;;5086211;28;20048;-63
2021/09/25 11:14:04;;;;;;;8.85;5.70;;;18.00;99.90;;;;;;5087907;28;20488;-63
2021/09/25 11:16:55;;;;;;;7.10;5.55;;;18.00;99.90;;;;;;5084575;28;20051;-63
2021/09/25 11:19:21;;;;;;;20.60;6.85;;;18.00;99.90;;;;;;5084847;28;20087;-62
2021/09/25 11:21:50;;;;;;;;;;;18.00;99.90;;;;;;5085026;28;20499;-63
2021/09/25 11:24:17;;;;;;;9.73;6.30;;;18.10;99.90;;;;;;5085053;28;20310;-63
2021/09/25 11:26:43;;;;;;;11.40;6.80;;;18.10;99.90;;;;;;5084271;28;20642;-64
2021/09/25 11:29:09;;;;;;;;;;;18.10;99.90;;;;;;5085339;28;20483;-63
2021/09/25 11:31:35;;;;;;;15.00;8.85;;;18.10;99.90;;;;;;5095032;28;19919;-63
2021/09/25 11:34:03;;;;;;;13.43;8.82;;;18.10;99.90;;;;;;5093438;28;20123;-65
2021/09/25 11:36:29;;;;;;;11.27;7.78;;;18.10;99.90;;;;;;5086835;28;20399;-64
2021/09/25 11:38:55;;;;;;;;;;;18.10;99.90;;;;;;5088526;28;20096;-64
2021/09/25 11:41:21;;;;;;;12.00;8.32;;;18.10;99.90;;;;;;5085462;28;20010;-64
2021/09/25 11:43:56;;;;;;;16.58;9.45;;;18.10;99.90;;;;;;5087253;28;20048;-63
2021/09/25 11:46:25;;;;;;;13.80;9.43;;;18.00;99.90;;;;;;5086083;28;20047;-63
2021/09/25 11:48:58;;;;;;;14.18;9.05;;;18.00;99.90;;;;;;5093593;28;20043;-64
2021/09/25 11:51:24;;;;;;;13.57;8.00;;;18.00;99.90;;;;;;5090222;28;20040;-63
2021/09/25 11:53:56;;;;;;;11.88;7.75;;;18.00;99.90;;;;;;5087042;28;20484;-63
2021/09/25 11:56:29;;;;;;;11.55;7.85;;;18.00;99.90;;;;;;5086131;28;20059;-64
2021/09/25 11:58:59;;;;;;;10.18;7.55;;;18.00;99.90;;;;;;5086366;28;20048;-63
2021/09/25 12:01:25;;;;;;;10.90;7.22;;;18.00;99.90;;;;;;5086676;28;20606;-64
2021/09/25 12:03:50;;;;;;;9.82;7.40;;;18.00;99.90;;;;;;5094453;28;20071;-63
2021/09/25 12:06:16;;;;;;;;;;;17.90;99.90;;;;;;5085899;28;20048;-63
2021/09/25 12:08:41;;;;;;;9.60;6.15;;;17.80;99.90;;;;;;5103832;28;19977;-63
2021/09/25 12:11:08;;;;;;;;;;;17.80;99.90;;;;;;5106558;28;20080;-64
2021/09/25 12:13:39;;;;;;;8.10;5.78;;;17.70;99.90;;;;;;5107445;28;19915;-63
2021/09/25 12:16:08;;;;;;;8.82;6.18;;;17.60;99.90;;;;;;5109225;28;20078;-63
2021/09/25 12:18:38;;;;;;;12.90;6.25;;;17.60;99.90;;;;;;5110154;28;20035;-64
2021/09/25 12:21:12;;;;;;;9.95;6.47;;;17.70;99.90;;;;;;5108546;28;20078;-63
2021/09/25 12:23:51;;;;;;;10.93;6.03;;;17.60;99.90;;;;;;5104868;28;20047;-64
2021/09/25 12:26:22;;;;;;;8.80;6.40;;;17.80;99.90;;;;;;5108925;28;20122;-64
2021/09/25 12:28:51;;;;;;;8.90;6.22;;;17.80;99.90;;;;;;5110603;28;20122;-65
2021/09/25 12:31:26;;;;;;;7.85;6.07;;;17.90;99.90;;;;;;5099738;27;20131;-63
2021/09/25 12:34:01;;;;;;;12.25;6.10;;;17.90;99.90;;;;;;5090124;28;20120;-65
2021/09/25 12:36:28;;;;;;;9.30;6.38;;;18.00;99.90;;;;;;5088964;28;20044;-64
2021/09/25 12:38:59;;;;;;;12.57;6.40;;;18.00;99.90;;;;;;5089849;28;20051;-64
2021/09/25 12:41:25;;;;;;;8.60;6.30;;;18.00;99.90;;;;;;5087280;28;20047;-64
2021/09/25 12:43:55;;;;;;;13.93;8.60;;;18.10;99.90;;;;;;5091087;28;20535;-64
2021/09/25 12:46:22;;;;;;;11.55;9.07;;;18.00;99.90;;;;;;5100614;28;20130;-63
2021/09/25 12:49:11;;;;;;;10.27;6.65;;;18.00;99.90;;;;;;5089363;28;20552;-63
2021/09/25 12:51:42;;;;;;;10.43;6.65;;;18.00;99.90;;;;;;5088698;28;20040;-63
2021/09/25 12:54:11;;;;;;;9.90;6.35;;;17.90;99.90;;;;;;5089232;28;20042;-63
2021/09/25 12:56:43;;;;;;;9.73;6.63;;;17.90;99.90;;;;;;5088528;28;20052;-63
2021/09/25 12:59:15;;;;;;;9.48;6.50;;;17.90;99.90;;;;;;5101905;28;20621;-63
2021/09/25 13:01:46;;;;;;;8.73;6.10;;;17.90;99.90;;;;;;5099097;28;20036;-64
2021/09/25 13:04:18;;;;;;;9.20;5.85;;;17.90;99.90;;;;;;5093352;28;20044;-63
2021/09/25 13:06:45;;;;;;;8.20;5.55;;;18.00;99.90;;;;;;5088910;28;20056;-64